sensor_id;sensor_type;location;lat;lon;timestamp;P1;durP1;ratioP1;P2;durP2;ratioP2
70761;SDS011;58360;0.000;0.000;2022-12-29T00:03:25;4.65;;;2.72;;
70761;SDS011;58360;0.000;0.000;2022-12-29T00:05:56;9.95;;;2.95;;
70761;SDS011;58360;0.000;0.000;2022-12-29T00:08:23;6.07;;;2.95;;
70761;SDS011;58360;0.000;0.000;2022-12-29T00:11:04;5.10;;;2.33;;
70761;SDS011;58360;0.000;0.000;2022-12-29T00:13:38;4.72;;;2.28;;
70761;SDS011;58360;0.000;0.000;2022-12-29T00:16:23;4.40;;;2.25;;
70761;SDS011;58360;0.000;0.000;2022-12-29T00:18:49;5.80;;;2.50;;
70761;SDS011;58360;0.000;0.000;2022-12-29T00:21:15;5.47;;;2.30;;
70761;SDS011;58360;0.000;0.000;2022-12-29T00:24:00;4.25;;;2.17;;
70761;SDS011;58360;0.000;0.000;2022-12-29T00:33:29;5.22;;;1.92;;
70761;SDS011;58360;0.000;0.000;2022-12-29T00:39:44;3.30;;;1.77;;
70761;SDS011;58360;0.000;0.000;2022-12-29T00:45:51;4.85;;;1.70;;
70761;SDS011;58360;0.000;0.000;2022-12-29T00:48:16;4.20;;;1.60;;
70761;SDS011;58360;0.000;0.000;2022-12-29T00:51:14;4.72;;;1.70;;
70761;SDS011;58360;0.000;0.000;2022-12-29T00:57:01;2.83;;;1.25;;
70761;SDS011;58360;0.000;0.000;2022-12-29T00:59:28;4.72;;;1.55;;
70761;SDS011;58360;0.000;0.000;2022-12-29T01:01:54;4.88;;;1.48;;
70761;SDS011;58360;0.000;0.000;2022-12-29T01:04:34;2.25;;;1.30;;
70761;SDS011;58360;0.000;0.000;2022-12-29T01:07:00;3.25;;;1.40;;
70761;SDS011;58360;0.000;0.000;2022-12-29T01:09:26;3.95;;;1.42;;
70761;SDS011;58360;0.000;0.000;2022-12-29T01:15:38;5.20;;;1.60;;
70761;SDS011;58360;0.000;0.000;2022-12-29T01:20:50;7.43;;;1.50;;
70761;SDS011;58360;0.000;0.000;2022-12-29T01:23:16;6.40;;;1.30;;
70761;SDS011;58360;0.000;0.000;2022-12-29T01:25:43;5.30;;;1.70;;
70761;SDS011;58360;0.000;0.000;2022-12-29T01:28:08;6.32;;;1.70;;
70761;SDS011;58360;0.000;0.000;2022-12-29T01:30:34;5.30;;;1.40;;
70761;SDS011;58360;0.000;0.000;2022-12-29T01:33:01;5.20;;;1.63;;
70761;SDS011;58360;0.000;0.000;2022-12-29T01:38:49;4.55;;;1.38;;
70761;SDS011;58360;0.000;0.000;2022-12-29T01:41:16;7.95;;;1.52;;
70761;SDS011;58360;0.000;0.000;2022-12-29T01:43:46;4.22;;;1.42;;
70761;SDS011;58360;0.000;0.000;2022-12-29T01:46:59;4.40;;;1.40;;
70761;SDS011;58360;0.000;0.000;2022-12-29T01:52:50;6.45;;;2.67;;
70761;SDS011;58360;0.000;0.000;2022-12-29T01:59:32;9.23;;;1.40;;
70761;SDS011;58360;0.000;0.000;2022-12-29T02:42:39;8.32;;;1.70;;
70761;SDS011;58360;0.000;0.000;2022-12-29T02:45:50;4.95;;;1.58;;
70761;SDS011;58360;0.000;0.000;2022-12-29T02:52:21;6.57;;;1.50;;
70761;SDS011;58360;0.000;0.000;2022-12-29T02:58:19;9.63;;;1.50;;
70761;SDS011;58360;0.000;0.000;2022-12-29T03:24:06;5.20;;;1.45;;
70761;SDS011;58360;0.000;0.000;2022-12-29T03:26:32;5.30;;;1.08;;
70761;SDS011;58360;0.000;0.000;2022-12-29T03:28:58;5.95;;;1.23;;
70761;SDS011;58360;0.000;0.000;2022-12-29T03:31:24;8.70;;;1.63;;
70761;SDS011;58360;0.000;0.000;2022-12-29T03:33:51;6.07;;;1.33;;
70761;SDS011;58360;0.000;0.000;2022-12-29T03:36:32;8.13;;;1.70;;
70761;SDS011;58360;0.000;0.000;2022-12-29T03:43:08;7.78;;;1.52;;
70761;SDS011;58360;0.000;0.000;2022-12-29T03:45:34;7.40;;;1.52;;
70761;SDS011;58360;0.000;0.000;2022-12-29T03:48:00;6.57;;;1.92;;
70761;SDS011;58360;0.000;0.000;2022-12-29T03:50:26;10.25;;;1.80;;
70761;SDS011;58360;0.000;0.000;2022-12-29T03:52:52;7.53;;;1.83;;
70761;SDS011;58360;0.000;0.000;2022-12-29T03:58:39;8.80;;;1.50;;
70761;SDS011;58360;0.000;0.000;2022-12-29T04:01:05;9.00;;;1.65;;
70761;SDS011;58360;0.000;0.000;2022-12-29T04:03:31;8.55;;;1.90;;
70761;SDS011;58360;0.000;0.000;2022-12-29T04:05:56;9.40;;;1.88;;
70761;SDS011;58360;0.000;0.000;2022-12-29T04:08:22;7.55;;;2.03;;
70761;SDS011;58360;0.000;0.000;2022-12-29T04:11:06;11.63;;;1.88;;
70761;SDS011;58360;0.000;0.000;2022-12-29T04:13:31;10.93;;;1.88;;
70761;SDS011;58360;0.000;0.000;2022-12-29T04:15:57;10.10;;;1.83;;
70761;SDS011;58360;0.000;0.000;2022-12-29T04:18:36;4.40;;;1.27;;
70761;SDS011;58360;0.000;0.000;2022-12-29T04:24:33;8.35;;;1.98;;
70761;SDS011;58360;0.000;0.000;2022-12-29T04:30:23;13.57;;;1.65;;
70761;SDS011;58360;0.000;0.000;2022-12-29T04:36:16;6.32;;;2.00;;
70761;SDS011;58360;0.000;0.000;2022-12-29T04:38:41;7.78;;;1.77;;
70761;SDS011;58360;0.000;0.000;2022-12-29T04:41:07;11.02;;;1.77;;
70761;SDS011;58360;0.000;0.000;2022-12-29T04:49:52;7.00;;;1.50;;
70761;SDS011;58360;0.000;0.000;2022-12-29T04:55:41;7.65;;;1.98;;
70761;SDS011;58360;0.000;0.000;2022-12-29T05:01:31;8.63;;;1.80;;
70761;SDS011;58360;0.000;0.000;2022-12-29T05:03:56;4.60;;;1.23;;
70761;SDS011;58360;0.000;0.000;2022-12-29T05:06:22;9.05;;;1.70;;
70761;SDS011;58360;0.000;0.000;2022-12-29T05:08:48;7.97;;;1.55;;
70761;SDS011;58360;0.000;0.000;2022-12-29T05:11:13;8.85;;;1.30;;
70761;SDS011;58360;0.000;0.000;2022-12-29T05:17:04;8.20;;;1.55;;
70761;SDS011;58360;0.000;0.000;2022-12-29T05:19:29;6.70;;;1.63;;
70761;SDS011;58360;0.000;0.000;2022-12-29T05:21:56;6.72;;;1.83;;
70761;SDS011;58360;0.000;0.000;2022-12-29T05:24:27;4.65;;;1.40;;
70761;SDS011;58360;0.000;0.000;2022-12-29T05:34:12;7.85;;;1.27;;
70761;SDS011;58360;0.000;0.000;2022-12-29T05:40:01;12.25;;;1.73;;
70761;SDS011;58360;0.000;0.000;2022-12-29T05:45:49;7.05;;;1.45;;
70761;SDS011;58360;0.000;0.000;2022-12-29T05:48:15;7.82;;;1.50;;
70761;SDS011;58360;0.000;0.000;2022-12-29T05:50:41;7.75;;;1.67;;
70761;SDS011;58360;0.000;0.000;2022-12-29T05:53:06;10.07;;;1.55;;
70761;SDS011;58360;0.000;0.000;2022-12-29T05:55:33;11.65;;;1.98;;
70761;SDS011;58360;0.000;0.000;2022-12-29T05:57:59;7.30;;;1.80;;
70761;SDS011;58360;0.000;0.000;2022-12-29T06:00:25;9.00;;;1.70;;
70761;SDS011;58360;0.000;0.000;2022-12-29T06:02:51;7.57;;;1.48;;
70761;SDS011;58360;0.000;0.000;2022-12-29T06:05:16;8.35;;;2.08;;
70761;SDS011;58360;0.000;0.000;2022-12-29T06:07:44;7.93;;;1.73;;
70761;SDS011;58360;0.000;0.000;2022-12-29T06:19:52;8.52;;;1.85;;
70761;SDS011;58360;0.000;0.000;2022-12-29T06:25:47;7.25;;;1.67;;
70761;SDS011;58360;0.000;0.000;2022-12-29T06:31:41;8.88;;;2.00;;
70761;SDS011;58360;0.000;0.000;2022-12-29T06:37:25;12.00;;;2.17;;
70761;SDS011;58360;0.000;0.000;2022-12-29T06:43:24;12.13;;;2.38;;
70761;SDS011;58360;0.000;0.000;2022-12-29T06:49:14;18.27;;;2.42;;
70761;SDS011;58360;0.000;0.000;2022-12-29T06:55:03;8.18;;;2.13;;
70761;SDS011;58360;0.000;0.000;2022-12-29T07:00:52;14.68;;;2.28;;
70761;SDS011;58360;0.000;0.000;2022-12-29T07:06:40;12.73;;;2.00;;
70761;SDS011;58360;0.000;0.000;2022-12-29T07:12:34;11.18;;;2.67;;
70761;SDS011;58360;0.000;0.000;2022-12-29T07:18:31;8.90;;;1.92;;
70761;SDS011;58360;0.000;0.000;2022-12-29T07:24:28;16.35;;;2.58;;
70761;SDS011;58360;0.000;0.000;2022-12-29T07:30:28;14.20;;;1.98;;
70761;SDS011;58360;0.000;0.000;2022-12-29T07:36:30;14.82;;;3.28;;
70761;SDS011;58360;0.000;0.000;2022-12-29T07:38:56;10.20;;;2.00;;
70761;SDS011;58360;0.000;0.000;2022-12-29T07:41:21;9.23;;;2.10;;
70761;SDS011;58360;0.000;0.000;2022-12-29T07:43:56;10.55;;;1.92;;
70761;SDS011;58360;0.000;0.000;2022-12-29T07:50:00;13.00;;;2.65;;
70761;SDS011;58360;0.000;0.000;2022-12-29T07:56:02;12.48;;;2.30;;
70761;SDS011;58360;0.000;0.000;2022-12-29T07:58:28;13.63;;;2.20;;
70761;SDS011;58360;0.000;0.000;2022-12-29T08:00:54;11.13;;;2.35;;
70761;SDS011;58360;0.000;0.000;2022-12-29T08:03:20;15.40;;;2.47;;
70761;SDS011;58360;0.000;0.000;2022-12-29T08:06:01;13.75;;;2.20;;
70761;SDS011;58360;0.000;0.000;2022-12-29T08:11:12;12.60;;;2.33;;
70761;SDS011;58360;0.000;0.000;2022-12-29T08:13:37;9.20;;;1.88;;
70761;SDS011;58360;0.000;0.000;2022-12-29T08:16:03;11.00;;;2.30;;
70761;SDS011;58360;0.000;0.000;2022-12-29T08:18:29;14.25;;;2.40;;
70761;SDS011;58360;0.000;0.000;2022-12-29T08:20:55;11.65;;;2.42;;
70761;SDS011;58360;0.000;0.000;2022-12-29T08:32:31;11.77;;;2.30;;
70761;SDS011;58360;0.000;0.000;2022-12-29T08:34:57;9.55;;;2.55;;
70761;SDS011;58360;0.000;0.000;2022-12-29T08:37:34;15.68;;;3.17;;
70761;SDS011;58360;0.000;0.000;2022-12-29T08:43:22;20.87;;;3.40;;
70761;SDS011;58360;0.000;0.000;2022-12-29T08:45:48;15.20;;;2.92;;
70761;SDS011;58360;0.000;0.000;2022-12-29T08:55:15;12.93;;;2.42;;
70761;SDS011;58360;0.000;0.000;2022-12-29T09:01:13;11.73;;;2.40;;
70761;SDS011;58360;0.000;0.000;2022-12-29T09:07:04;11.27;;;2.55;;
70761;SDS011;58360;0.000;0.000;2022-12-29T09:09:30;12.23;;;2.30;;
70761;SDS011;58360;0.000;0.000;2022-12-29T09:11:56;11.43;;;2.35;;
70761;SDS011;58360;0.000;0.000;2022-12-29T09:14:22;12.70;;;2.53;;
70761;SDS011;58360;0.000;0.000;2022-12-29T09:20:16;16.30;;;2.88;;
70761;SDS011;58360;0.000;0.000;2022-12-29T09:32:19;21.05;;;3.05;;
70761;SDS011;58360;0.000;0.000;2022-12-29T09:34:46;13.75;;;2.28;;
70761;SDS011;58360;0.000;0.000;2022-12-29T09:37:12;20.25;;;5.45;;
70761;SDS011;58360;0.000;0.000;2022-12-29T09:39:38;15.23;;;2.60;;
70761;SDS011;58360;0.000;0.000;2022-12-29T09:42:06;11.52;;;2.17;;
70761;SDS011;58360;0.000;0.000;2022-12-29T10:11:06;16.35;;;2.95;;
70761;SDS011;58360;0.000;0.000;2022-12-29T10:37:59;8.38;;;2.28;;
70761;SDS011;58360;0.000;0.000;2022-12-29T10:43:59;9.65;;;2.60;;
70761;SDS011;58360;0.000;0.000;2022-12-29T12:05:46;12.77;;;2.45;;
70761;SDS011;58360;0.000;0.000;2022-12-29T12:11:20;15.60;;;2.55;;
70761;SDS011;58360;0.000;0.000;2022-12-29T12:17:37;10.95;;;2.78;;
70761;SDS011;58360;0.000;0.000;2022-12-29T12:30:40;12.68;;;2.95;;
70761;SDS011;58360;0.000;0.000;2022-12-29T13:20:20;12.25;;;2.38;;
70761;SDS011;58360;0.000;0.000;2022-12-29T13:26:49;16.08;;;2.50;;
70761;SDS011;58360;0.000;0.000;2022-12-29T13:41:33;16.17;;;3.10;;
70761;SDS011;58360;0.000;0.000;2022-12-29T13:44:52;13.07;;;2.42;;
70761;SDS011;58360;0.000;0.000;2022-12-29T13:51:25;12.93;;;2.60;;
70761;SDS011;58360;0.000;0.000;2022-12-29T14:00:16;15.68;;;2.55;;
70761;SDS011;58360;0.000;0.000;2022-12-29T14:05:31;12.43;;;2.80;;
70761;SDS011;58360;0.000;0.000;2022-12-29T14:08:11;14.85;;;2.33;;
70761;SDS011;58360;0.000;0.000;2022-12-29T14:46:44;6.63;;;1.60;;
70761;SDS011;58360;0.000;0.000;2022-12-29T14:49:21;10.18;;;1.70;;
70761;SDS011;58360;0.000;0.000;2022-12-29T14:51:53;7.55;;;1.80;;
70761;SDS011;58360;0.000;0.000;2022-12-29T14:56:59;13.35;;;1.98;;
70761;SDS011;58360;0.000;0.000;2022-12-29T14:59:27;6.03;;;1.58;;
70761;SDS011;58360;0.000;0.000;2022-12-29T15:01:55;6.05;;;1.33;;
70761;SDS011;58360;0.000;0.000;2022-12-29T15:04:23;11.32;;;2.05;;
70761;SDS011;58360;0.000;0.000;2022-12-29T15:06:52;8.88;;;1.52;;
70761;SDS011;58360;0.000;0.000;2022-12-29T15:12:03;7.15;;;1.63;;
70761;SDS011;58360;0.000;0.000;2022-12-29T15:14:47;8.32;;;1.90;;
70761;SDS011;58360;0.000;0.000;2022-12-29T15:24:12;6.55;;;2.08;;
70761;SDS011;58360;0.000;0.000;2022-12-29T15:26:40;8.68;;;1.90;;
70761;SDS011;58360;0.000;0.000;2022-12-29T15:34:50;11.27;;;2.05;;
70761;SDS011;58360;0.000;0.000;2022-12-29T15:37:22;9.32;;;1.73;;
70761;SDS011;58360;0.000;0.000;2022-12-29T15:39:49;11.45;;;2.28;;
70761;SDS011;58360;0.000;0.000;2022-12-29T15:45:10;8.82;;;2.17;;
70761;SDS011;58360;0.000;0.000;2022-12-29T15:47:37;14.70;;;3.30;;
70761;SDS011;58360;0.000;0.000;2022-12-29T15:53:31;14.63;;;2.28;;
70761;SDS011;58360;0.000;0.000;2022-12-29T15:56:07;14.40;;;2.78;;
70761;SDS011;58360;0.000;0.000;2022-12-29T15:58:43;13.05;;;2.40;;
70761;SDS011;58360;0.000;0.000;2022-12-29T16:01:18;12.10;;;2.85;;
70761;SDS011;58360;0.000;0.000;2022-12-29T16:03:44;14.35;;;2.33;;
70761;SDS011;58360;0.000;0.000;2022-12-29T16:09:17;15.98;;;2.53;;
70761;SDS011;58360;0.000;0.000;2022-12-29T16:11:54;8.05;;;2.10;;
70761;SDS011;58360;0.000;0.000;2022-12-29T16:14:37;17.35;;;2.92;;
70761;SDS011;58360;0.000;0.000;2022-12-29T16:17:10;10.85;;;2.28;;
70761;SDS011;58360;0.000;0.000;2022-12-29T16:19:41;13.00;;;2.47;;
70761;SDS011;58360;0.000;0.000;2022-12-29T16:22:12;12.38;;;2.50;;
70761;SDS011;58360;0.000;0.000;2022-12-29T16:25:28;14.95;;;2.95;;
70761;SDS011;58360;0.000;0.000;2022-12-29T16:28:02;10.50;;;2.42;;
70761;SDS011;58360;0.000;0.000;2022-12-29T16:30:42;9.57;;;2.28;;
70761;SDS011;58360;0.000;0.000;2022-12-29T16:42:32;10.10;;;2.20;;
70761;SDS011;58360;0.000;0.000;2022-12-29T16:51:35;14.20;;;3.10;;
70761;SDS011;58360;0.000;0.000;2022-12-29T16:54:02;15.18;;;2.60;;
70761;SDS011;58360;0.000;0.000;2022-12-29T16:56:30;11.40;;;2.65;;
70761;SDS011;58360;0.000;0.000;2022-12-29T16:59:08;19.95;;;3.20;;
70761;SDS011;58360;0.000;0.000;2022-12-29T17:01:55;16.02;;;2.95;;
70761;SDS011;58360;0.000;0.000;2022-12-29T17:04:22;10.38;;;2.88;;
70761;SDS011;58360;0.000;0.000;2022-12-29T17:06:48;14.57;;;3.25;;
70761;SDS011;58360;0.000;0.000;2022-12-29T17:09:19;14.57;;;4.13;;
70761;SDS011;58360;0.000;0.000;2022-12-29T17:11:47;15.60;;;2.90;;
70761;SDS011;58360;0.000;0.000;2022-12-29T17:17:12;19.52;;;2.90;;
70761;SDS011;58360;0.000;0.000;2022-12-29T17:19:56;21.38;;;3.22;;
70761;SDS011;58360;0.000;0.000;2022-12-29T17:22:27;13.35;;;3.00;;
70761;SDS011;58360;0.000;0.000;2022-12-29T17:24:55;14.70;;;2.47;;
70761;SDS011;58360;0.000;0.000;2022-12-29T17:27:35;22.98;;;3.60;;
70761;SDS011;58360;0.000;0.000;2022-12-29T17:30:09;17.83;;;3.42;;
70761;SDS011;58360;0.000;0.000;2022-12-29T17:33:16;19.55;;;3.22;;
70761;SDS011;58360;0.000;0.000;2022-12-29T17:35:43;26.42;;;3.65;;
70761;SDS011;58360;0.000;0.000;2022-12-29T17:38:22;16.88;;;4.43;;
70761;SDS011;58360;0.000;0.000;2022-12-29T17:40:52;27.60;;;3.80;;
70761;SDS011;58360;0.000;0.000;2022-12-29T17:43:18;22.55;;;6.38;;
70761;SDS011;58360;0.000;0.000;2022-12-29T17:45:45;22.50;;;4.07;;
70761;SDS011;58360;0.000;0.000;2022-12-29T17:48:16;24.00;;;4.47;;
70761;SDS011;58360;0.000;0.000;2022-12-29T17:50:42;17.88;;;3.75;;
70761;SDS011;58360;0.000;0.000;2022-12-29T17:53:11;19.85;;;3.88;;
70761;SDS011;58360;0.000;0.000;2022-12-29T17:55:39;21.63;;;3.63;;
70761;SDS011;58360;0.000;0.000;2022-12-29T17:58:15;19.00;;;3.28;;
70761;SDS011;58360;0.000;0.000;2022-12-29T18:00:47;19.83;;;4.28;;
70761;SDS011;58360;0.000;0.000;2022-12-29T18:03:15;22.48;;;3.97;;
70761;SDS011;58360;0.000;0.000;2022-12-29T18:05:43;30.45;;;4.57;;
70761;SDS011;58360;0.000;0.000;2022-12-29T18:08:09;20.65;;;3.58;;
70761;SDS011;58360;0.000;0.000;2022-12-29T18:10:36;17.08;;;3.97;;
70761;SDS011;58360;0.000;0.000;2022-12-29T18:13:03;16.05;;;2.80;;
70761;SDS011;58360;0.000;0.000;2022-12-29T18:15:30;16.08;;;3.40;;
70761;SDS011;58360;0.000;0.000;2022-12-29T18:20:29;14.32;;;3.22;;
70761;SDS011;58360;0.000;0.000;2022-12-29T18:22:55;20.27;;;3.58;;
70761;SDS011;58360;0.000;0.000;2022-12-29T18:27:51;21.95;;;4.18;;
70761;SDS011;58360;0.000;0.000;2022-12-29T18:33:41;17.65;;;3.40;;
70761;SDS011;58360;0.000;0.000;2022-12-29T18:36:08;25.00;;;3.72;;
70761;SDS011;58360;0.000;0.000;2022-12-29T18:38:35;14.15;;;3.53;;
70761;SDS011;58360;0.000;0.000;2022-12-29T18:41:01;20.50;;;3.25;;
70761;SDS011;58360;0.000;0.000;2022-12-29T18:43:28;21.48;;;3.88;;
70761;SDS011;58360;0.000;0.000;2022-12-29T18:45:54;19.95;;;2.92;;
70761;SDS011;58360;0.000;0.000;2022-12-29T18:48:20;15.55;;;3.22;;
70761;SDS011;58360;0.000;0.000;2022-12-29T18:57:11;17.05;;;4.28;;
70761;SDS011;58360;0.000;0.000;2022-12-29T19:02:21;14.68;;;3.70;;
70761;SDS011;58360;0.000;0.000;2022-12-29T19:04:49;15.80;;;2.95;;
70761;SDS011;58360;0.000;0.000;2022-12-29T19:07:15;17.08;;;3.72;;
70761;SDS011;58360;0.000;0.000;2022-12-29T19:09:41;18.63;;;4.03;;
70761;SDS011;58360;0.000;0.000;2022-12-29T19:12:07;13.55;;;3.30;;
70761;SDS011;58360;0.000;0.000;2022-12-29T19:14:39;21.95;;;3.60;;
70761;SDS011;58360;0.000;0.000;2022-12-29T19:17:07;18.50;;;2.80;;
70761;SDS011;58360;0.000;0.000;2022-12-29T19:22:06;22.20;;;3.45;;
70761;SDS011;58360;0.000;0.000;2022-12-29T19:24:32;21.52;;;4.07;;
70761;SDS011;58360;0.000;0.000;2022-12-29T19:26:58;14.02;;;2.70;;
70761;SDS011;58360;0.000;0.000;2022-12-29T19:29:24;11.73;;;2.88;;
70761;SDS011;58360;0.000;0.000;2022-12-29T19:31:50;15.15;;;2.90;;
70761;SDS011;58360;0.000;0.000;2022-12-29T19:34:16;16.35;;;3.72;;
70761;SDS011;58360;0.000;0.000;2022-12-29T19:36:42;15.40;;;3.10;;
70761;SDS011;58360;0.000;0.000;2022-12-29T19:39:09;19.00;;;3.20;;
70761;SDS011;58360;0.000;0.000;2022-12-29T19:41:35;17.77;;;3.30;;
70761;SDS011;58360;0.000;0.000;2022-12-29T19:44:01;16.33;;;3.28;;
70761;SDS011;58360;0.000;0.000;2022-12-29T19:46:27;15.25;;;3.05;;
70761;SDS011;58360;0.000;0.000;2022-12-29T19:48:53;18.38;;;3.75;;
70761;SDS011;58360;0.000;0.000;2022-12-29T19:51:22;16.10;;;3.10;;
70761;SDS011;58360;0.000;0.000;2022-12-29T19:53:49;17.45;;;3.05;;
70761;SDS011;58360;0.000;0.000;2022-12-29T19:56:15;18.48;;;2.92;;
70761;SDS011;58360;0.000;0.000;2022-12-29T19:58:41;22.35;;;3.85;;
70761;SDS011;58360;0.000;0.000;2022-12-29T20:01:08;12.55;;;3.17;;
70761;SDS011;58360;0.000;0.000;2022-12-29T20:03:36;18.80;;;3.78;;
70761;SDS011;58360;0.000;0.000;2022-12-29T20:06:03;20.75;;;3.47;;
70761;SDS011;58360;0.000;0.000;2022-12-29T20:08:29;15.93;;;3.30;;
70761;SDS011;58360;0.000;0.000;2022-12-29T20:10:59;23.58;;;3.83;;
70761;SDS011;58360;0.000;0.000;2022-12-29T20:13:51;14.35;;;3.40;;
70761;SDS011;58360;0.000;0.000;2022-12-29T20:16:17;10.70;;;2.50;;
70761;SDS011;58360;0.000;0.000;2022-12-29T20:18:44;17.05;;;3.70;;
70761;SDS011;58360;0.000;0.000;2022-12-29T20:21:12;14.52;;;3.15;;
70761;SDS011;58360;0.000;0.000;2022-12-29T20:23:40;14.27;;;3.10;;
70761;SDS011;58360;0.000;0.000;2022-12-29T20:26:07;17.15;;;2.63;;
70761;SDS011;58360;0.000;0.000;2022-12-29T20:28:37;19.77;;;3.42;;
70761;SDS011;58360;0.000;0.000;2022-12-29T20:31:04;17.33;;;3.28;;
70761;SDS011;58360;0.000;0.000;2022-12-29T20:33:32;17.13;;;3.25;;
70761;SDS011;58360;0.000;0.000;2022-12-29T20:36:19;14.98;;;3.17;;
70761;SDS011;58360;0.000;0.000;2022-12-29T20:38:56;14.52;;;3.25;;
70761;SDS011;58360;0.000;0.000;2022-12-29T20:41:24;16.95;;;3.20;;
70761;SDS011;58360;0.000;0.000;2022-12-29T20:43:50;22.80;;;2.90;;
70761;SDS011;58360;0.000;0.000;2022-12-29T20:46:19;16.58;;;3.25;;
70761;SDS011;58360;0.000;0.000;2022-12-29T20:48:45;13.73;;;3.45;;
70761;SDS011;58360;0.000;0.000;2022-12-29T20:51:11;22.88;;;3.50;;
70761;SDS011;58360;0.000;0.000;2022-12-29T20:53:37;17.50;;;3.08;;
70761;SDS011;58360;0.000;0.000;2022-12-29T20:56:05;24.55;;;3.45;;
70761;SDS011;58360;0.000;0.000;2022-12-29T20:58:32;16.90;;;4.45;;
70761;SDS011;58360;0.000;0.000;2022-12-29T21:01:03;18.48;;;3.90;;
70761;SDS011;58360;0.000;0.000;2022-12-29T21:03:31;14.90;;;4.00;;
70761;SDS011;58360;0.000;0.000;2022-12-29T21:05:57;18.27;;;3.88;;
70761;SDS011;58360;0.000;0.000;2022-12-29T21:08:24;20.42;;;3.38;;
70761;SDS011;58360;0.000;0.000;2022-12-29T21:10:50;14.98;;;2.35;;
70761;SDS011;58360;0.000;0.000;2022-12-29T21:13:17;14.70;;;2.65;;
70761;SDS011;58360;0.000;0.000;2022-12-29T21:15:43;15.13;;;3.08;;
70761;SDS011;58360;0.000;0.000;2022-12-29T21:18:09;13.48;;;2.80;;
70761;SDS011;58360;0.000;0.000;2022-12-29T21:20:35;9.63;;;2.67;;
70761;SDS011;58360;0.000;0.000;2022-12-29T21:23:01;14.50;;;3.92;;
70761;SDS011;58360;0.000;0.000;2022-12-29T21:25:27;16.58;;;3.22;;
70761;SDS011;58360;0.000;0.000;2022-12-29T21:28:04;14.93;;;3.60;;
70761;SDS011;58360;0.000;0.000;2022-12-29T21:30:30;17.65;;;3.85;;
70761;SDS011;58360;0.000;0.000;2022-12-29T21:32:56;17.52;;;3.22;;
70761;SDS011;58360;0.000;0.000;2022-12-29T21:35:22;11.55;;;2.40;;
70761;SDS011;58360;0.000;0.000;2022-12-29T21:37:48;12.43;;;3.83;;
70761;SDS011;58360;0.000;0.000;2022-12-29T21:40:14;16.02;;;3.25;;
70761;SDS011;58360;0.000;0.000;2022-12-29T21:42:39;11.75;;;2.88;;
70761;SDS011;58360;0.000;0.000;2022-12-29T21:45:05;15.15;;;2.88;;
70761;SDS011;58360;0.000;0.000;2022-12-29T21:47:48;12.80;;;2.97;;
70761;SDS011;58360;0.000;0.000;2022-12-29T21:50:37;12.55;;;2.80;;
70761;SDS011;58360;0.000;0.000;2022-12-29T21:53:23;14.77;;;3.08;;
70761;SDS011;58360;0.000;0.000;2022-12-29T21:56:11;20.38;;;3.72;;
70761;SDS011;58360;0.000;0.000;2022-12-29T22:02:15;13.38;;;3.15;;
70761;SDS011;58360;0.000;0.000;2022-12-29T22:05:05;21.02;;;3.78;;
70761;SDS011;58360;0.000;0.000;2022-12-29T22:07:51;14.38;;;3.10;;
70761;SDS011;58360;0.000;0.000;2022-12-29T22:10:39;16.00;;;3.35;;
70761;SDS011;58360;0.000;0.000;2022-12-29T22:13:34;17.10;;;3.15;;
70761;SDS011;58360;0.000;0.000;2022-12-29T22:16:03;18.70;;;3.47;;
70761;SDS011;58360;0.000;0.000;2022-12-29T22:18:39;20.20;;;3.58;;
70761;SDS011;58360;0.000;0.000;2022-12-29T22:21:05;11.55;;;2.65;;
70761;SDS011;58360;0.000;0.000;2022-12-29T22:23:32;21.20;;;3.00;;
70761;SDS011;58360;0.000;0.000;2022-12-29T22:26:02;20.58;;;4.22;;
70761;SDS011;58360;0.000;0.000;2022-12-29T22:28:29;19.70;;;3.13;;
70761;SDS011;58360;0.000;0.000;2022-12-29T22:30:54;18.83;;;4.00;;
70761;SDS011;58360;0.000;0.000;2022-12-29T22:33:20;27.77;;;3.50;;
70761;SDS011;58360;0.000;0.000;2022-12-29T22:35:46;18.38;;;3.47;;
70761;SDS011;58360;0.000;0.000;2022-12-29T22:41:34;12.50;;;2.88;;
70761;SDS011;58360;0.000;0.000;2022-12-29T22:44:00;15.77;;;3.25;;
70761;SDS011;58360;0.000;0.000;2022-12-29T22:46:25;20.25;;;3.60;;
70761;SDS011;58360;0.000;0.000;2022-12-29T22:48:51;17.15;;;3.53;;
70761;SDS011;58360;0.000;0.000;2022-12-29T22:51:17;24.13;;;4.22;;
70761;SDS011;58360;0.000;0.000;2022-12-29T22:53:42;16.90;;;3.75;;
70761;SDS011;58360;0.000;0.000;2022-12-29T22:56:10;19.50;;;2.90;;
70761;SDS011;58360;0.000;0.000;2022-12-29T22:58:40;19.38;;;3.40;;
70761;SDS011;58360;0.000;0.000;2022-12-29T23:01:07;19.35;;;3.80;;
70761;SDS011;58360;0.000;0.000;2022-12-29T23:03:33;13.35;;;3.47;;
70761;SDS011;58360;0.000;0.000;2022-12-29T23:06:00;18.75;;;3.63;;
70761;SDS011;58360;0.000;0.000;2022-12-29T23:08:30;18.67;;;3.40;;
70761;SDS011;58360;0.000;0.000;2022-12-29T23:14:01;18.75;;;3.20;;
70761;SDS011;58360;0.000;0.000;2022-12-29T23:16:26;12.60;;;2.92;;
70761;SDS011;58360;0.000;0.000;2022-12-29T23:18:52;19.42;;;3.80;;
70761;SDS011;58360;0.000;0.000;2022-12-29T23:21:18;14.77;;;3.53;;
70761;SDS011;58360;0.000;0.000;2022-12-29T23:23:45;20.75;;;3.30;;
70761;SDS011;58360;0.000;0.000;2022-12-29T23:29:41;21.05;;;3.90;;
70761;SDS011;58360;0.000;0.000;2022-12-29T23:32:07;21.50;;;4.32;;
70761;SDS011;58360;0.000;0.000;2022-12-29T23:34:33;15.40;;;4.13;;
70761;SDS011;58360;0.000;0.000;2022-12-29T23:36:59;20.63;;;4.03;;
70761;SDS011;58360;0.000;0.000;2022-12-29T23:39:24;14.95;;;3.50;;
70761;SDS011;58360;0.000;0.000;2022-12-29T23:41:50;27.17;;;4.78;;
70761;SDS011;58360;0.000;0.000;2022-12-29T23:44:16;19.38;;;3.40;;
70761;SDS011;58360;0.000;0.000;2022-12-29T23:46:42;15.65;;;3.33;;
70761;SDS011;58360;0.000;0.000;2022-12-29T23:49:08;26.52;;;4.85;;
70761;SDS011;58360;0.000;0.000;2022-12-29T23:51:33;21.90;;;4.75;;
70761;SDS011;58360;0.000;0.000;2022-12-29T23:53:59;26.00;;;4.88;;
